sensor_id;sensor_type;location;lat;lon;timestamp;pressure;altitude;pressure_sealevel;temperature;humidity
44148;BME280;29810;55.848;37.368;2022-11-15T00:01:27;99743.97;;;-1.03;53.64
44148;BME280;29810;55.848;37.368;2022-11-15T00:04:47;99733.31;;;-1.24;53.71
44148;BME280;29810;55.848;37.368;2022-11-15T00:08:07;99741.22;;;-1.13;54.38
44148;BME280;29810;55.848;37.368;2022-11-15T00:11:27;99738.56;;;-1.18;54.39
44148;BME280;29810;55.848;37.368;2022-11-15T00:14:47;99738.88;;;-1.00;54.63
44148;BME280;29810;55.848;37.368;2022-11-15T00:18:12;99727.28;;;-0.82;54.47
44148;BME280;29810;55.848;37.368;2022-11-15T00:21:32;99719.91;;;-0.63;54.25
44148;BME280;29810;55.848;37.368;2022-11-15T00:24:52;99720.16;;;-0.48;54.56
44148;BME280;29810;55.848;37.368;2022-11-15T00:28:13;99719.37;;;-0.42;54.60
44148;BME280;29810;55.848;37.368;2022-11-15T00:31:33;99731.22;;;-0.49;55.02
44148;BME280;29810;55.848;37.368;2022-11-15T00:34:53;99683.94;;;-0.70;55.31
44148;BME280;29810;55.848;37.368;2022-11-15T00:38:13;99703.97;;;-0.44;55.82
44148;BME280;29810;55.848;37.368;2022-11-15T00:41:32;99675.38;;;-0.72;55.23
44148;BME280;29810;55.848;37.368;2022-11-15T00:44:52;99695.31;;;-0.52;56.04
44148;BME280;29810;55.848;37.368;2022-11-15T00:48:12;99687.53;;;-0.58;55.63
44148;BME280;29810;55.848;37.368;2022-11-15T00:51:32;99701.81;;;-0.73;56.28
44148;BME280;29810;55.848;37.368;2022-11-15T00:54:51;99697.53;;;-0.72;56.41
44148;BME280;29810;55.848;37.368;2022-11-15T00:58:11;99696.66;;;-0.76;56.09
44148;BME280;29810;55.848;37.368;2022-11-15T01:01:31;99699.38;;;-0.65;56.05
44148;BME280;29810;55.848;37.368;2022-11-15T01:04:51;99681.28;;;-0.76;56.28
44148;BME280;29810;55.848;37.368;2022-11-15T01:08:15;99688.13;;;-0.75;56.23
44148;BME280;29810;55.848;37.368;2022-11-15T01:11:35;99680.69;;;-0.59;56.21
44148;BME280;29810;55.848;37.368;2022-11-15T01:14:55;99673.25;;;-0.44;56.13
44148;BME280;29810;55.848;37.368;2022-11-15T01:18:15;99667.84;;;-0.62;55.85
44148;BME280;29810;55.848;37.368;2022-11-15T01:21:35;99672.87;;;-0.65;55.84
44148;BME280;29810;55.848;37.368;2022-11-15T01:24:55;99659.34;;;-0.58;55.98
44148;BME280;29810;55.848;37.368;2022-11-15T01:28:15;99662.66;;;-0.65;55.20
44148;BME280;29810;55.848;37.368;2022-11-15T01:31:35;99667.59;;;-0.78;56.03
44148;BME280;29810;55.848;37.368;2022-11-15T01:34:54;99654.84;;;-0.73;55.99
44148;BME280;29810;55.848;37.368;2022-11-15T01:38:14;99659.16;;;-0.71;56.02
44148;BME280;29810;55.848;37.368;2022-11-15T01:41:34;99654.03;;;-0.71;55.87
44148;BME280;29810;55.848;37.368;2022-11-15T01:44:54;99661.50;;;-0.85;55.90
44148;BME280;29810;55.848;37.368;2022-11-15T01:48:14;99661.41;;;-0.89;55.55
44148;BME280;29810;55.848;37.368;2022-11-15T01:51:34;99658.94;;;-0.86;56.04
44148;BME280;29810;55.848;37.368;2022-11-15T01:58:25;99653.97;;;-0.75;55.48
44148;BME280;29810;55.848;37.368;2022-11-15T02:01:45;99659.94;;;-0.75;55.75
44148;BME280;29810;55.848;37.368;2022-11-15T02:05:05;99654.97;;;-0.65;55.57
44148;BME280;29810;55.848;37.368;2022-11-15T02:08:26;99654.28;;;-0.55;55.53
44148;BME280;29810;55.848;37.368;2022-11-15T02:11:47;99660.22;;;-0.58;55.22
44148;BME280;29810;55.848;37.368;2022-11-15T02:15:09;99643.97;;;-0.60;55.22
44148;BME280;29810;55.848;37.368;2022-11-15T02:18:37;99643.87;;;-0.64;55.28
44148;BME280;29810;55.848;37.368;2022-11-15T02:25:45;99644.00;;;-0.58;55.45
44148;BME280;29810;55.848;37.368;2022-11-15T02:29:14;99640.59;;;-0.57;55.75
44148;BME280;29810;55.848;37.368;2022-11-15T02:32:58;99642.13;;;-0.67;56.04
44148;BME280;29810;55.848;37.368;2022-11-15T02:36:43;99653.19;;;-0.71;56.37
44148;BME280;29810;55.848;37.368;2022-11-15T02:40:16;99644.81;;;-0.61;56.60
44148;BME280;29810;55.848;37.368;2022-11-15T02:47:16;99629.53;;;-0.55;56.52
44148;BME280;29810;55.848;37.368;2022-11-15T02:50:36;99630.25;;;-0.63;56.66
44148;BME280;29810;55.848;37.368;2022-11-15T02:54:06;99627.59;;;-0.68;56.73
44148;BME280;29810;55.848;37.368;2022-11-15T03:04:44;99615.78;;;-0.61;56.75
44148;BME280;29810;55.848;37.368;2022-11-15T03:11:28;99612.06;;;-0.80;56.85
44148;BME280;29810;55.848;37.368;2022-11-15T03:14:56;99600.19;;;-0.77;56.72
44148;BME280;29810;55.848;37.368;2022-11-15T03:18:28;99595.94;;;-0.75;56.92
44148;BME280;29810;55.848;37.368;2022-11-15T03:21:51;99595.88;;;-0.78;57.00
44148;BME280;29810;55.848;37.368;2022-11-15T03:25:19;99595.03;;;-0.78;57.02
44148;BME280;29810;55.848;37.368;2022-11-15T03:28:55;99595.13;;;-0.71;56.66
44148;BME280;29810;55.848;37.368;2022-11-15T03:32:19;99595.13;;;-0.71;56.61
44148;BME280;29810;55.848;37.368;2022-11-15T03:35:43;99592.56;;;-0.71;56.80
44148;BME280;29810;55.848;37.368;2022-11-15T03:39:06;99594.28;;;-0.70;56.77
44148;BME280;29810;55.848;37.368;2022-11-15T03:42:40;99599.38;;;-0.73;56.94
44148;BME280;29810;55.848;37.368;2022-11-15T03:49:49;99599.19;;;-0.85;56.64
44148;BME280;29810;55.848;37.368;2022-11-15T03:53:11;99594.12;;;-0.82;56.89
44148;BME280;29810;55.848;37.368;2022-11-15T03:56:31;99587.44;;;-0.72;57.10
44148;BME280;29810;55.848;37.368;2022-11-15T03:59:51;99584.97;;;-0.64;56.83
44148;BME280;29810;55.848;37.368;2022-11-15T04:03:11;99567.13;;;-0.61;56.71
44148;BME280;29810;55.848;37.368;2022-11-15T04:06:31;99576.66;;;-0.49;56.43
44148;BME280;29810;55.848;37.368;2022-11-15T04:09:50;99573.28;;;-0.47;56.28
44148;BME280;29810;55.848;37.368;2022-11-15T04:13:23;99575.63;;;-0.62;55.66
44148;BME280;29810;55.848;37.368;2022-11-15T04:16:43;99574.75;;;-0.63;57.46
44148;BME280;29810;55.848;37.368;2022-11-15T04:23:50;99578.88;;;-0.76;55.83
44148;BME280;29810;55.848;37.368;2022-11-15T04:27:25;99577.75;;;-0.90;55.34
44148;BME280;29810;55.848;37.368;2022-11-15T04:30:45;99574.34;;;-0.92;56.34
44148;BME280;29810;55.848;37.368;2022-11-15T04:34:05;99571.00;;;-0.87;57.59
44148;BME280;29810;55.848;37.368;2022-11-15T04:37:25;99558.41;;;-0.73;56.93
44148;BME280;29810;55.848;37.368;2022-11-15T04:40:48;99548.06;;;-0.80;55.41
44148;BME280;29810;55.848;37.368;2022-11-15T04:44:07;99545.41;;;-0.87;56.30
44148;BME280;29810;55.848;37.368;2022-11-15T04:47:27;99558.87;;;-0.98;55.83
44148;BME280;29810;55.848;37.368;2022-11-15T04:50:48;99544.59;;;-0.84;58.33
44148;BME280;29810;55.848;37.368;2022-11-15T04:54:08;99539.59;;;-0.73;57.83
44148;BME280;29810;55.848;37.368;2022-11-15T04:57:29;99548.44;;;-0.51;56.35
44148;BME280;29810;55.848;37.368;2022-11-15T05:00:48;99551.87;;;-0.52;56.17
44148;BME280;29810;55.848;37.368;2022-11-15T05:04:11;99548.38;;;-0.57;56.36
44148;BME280;29810;55.848;37.368;2022-11-15T05:07:40;99538.25;;;-0.48;57.41
44148;BME280;29810;55.848;37.368;2022-11-15T05:10:59;99538.28;;;-0.45;56.48
44148;BME280;29810;55.848;37.368;2022-11-15T05:14:19;99549.91;;;-0.70;55.70
44148;BME280;29810;55.848;37.368;2022-11-15T05:17:40;99544.47;;;-0.92;55.20
44148;BME280;29810;55.848;37.368;2022-11-15T05:21:18;99545.09;;;-1.07;56.43
44148;BME280;29810;55.848;37.368;2022-11-15T05:24:38;99530.13;;;-0.80;55.77
44148;BME280;29810;55.848;37.368;2022-11-15T05:27:58;99528.53;;;-0.72;56.61
44148;BME280;29810;55.848;37.368;2022-11-15T05:31:18;99523.69;;;-0.52;56.41
44148;BME280;29810;55.848;37.368;2022-11-15T05:34:38;99518.72;;;-0.37;56.28
44148;BME280;29810;55.848;37.368;2022-11-15T05:37:58;99524.97;;;-0.14;55.54
44148;BME280;29810;55.848;37.368;2022-11-15T05:41:21;99516.16;;;-0.40;55.76
44148;BME280;29810;55.848;37.368;2022-11-15T05:44:47;99522.97;;;-0.42;57.27
44148;BME280;29810;55.848;37.368;2022-11-15T05:48:09;99518.38;;;-0.68;54.56
44148;BME280;29810;55.848;37.368;2022-11-15T05:51:29;99533.59;;;-0.78;55.79
44148;BME280;29810;55.848;37.368;2022-11-15T05:54:50;99515.06;;;-0.59;56.15
44148;BME280;29810;55.848;37.368;2022-11-15T05:58:11;99517.78;;;-0.45;55.52
44148;BME280;29810;55.848;37.368;2022-11-15T06:01:31;99510.88;;;-0.52;55.32
44148;BME280;29810;55.848;37.368;2022-11-15T06:04:51;99498.75;;;-0.65;55.24
44148;BME280;29810;55.848;37.368;2022-11-15T06:08:11;99508.97;;;-0.65;54.42
44148;BME280;29810;55.848;37.368;2022-11-15T06:11:31;99497.97;;;-0.61;55.67
44148;BME280;29810;55.848;37.368;2022-11-15T06:14:50;99500.66;;;-0.49;55.61
44148;BME280;29810;55.848;37.368;2022-11-15T06:18:10;99508.66;;;-0.21;56.65
44148;BME280;29810;55.848;37.368;2022-11-15T06:21:30;99491.63;;;-0.19;56.46
44148;BME280;29810;55.848;37.368;2022-11-15T06:24:50;99502.06;;;0.01;57.07
44148;BME280;29810;55.848;37.368;2022-11-15T06:28:09;99490.22;;;0.11;57.43
44148;BME280;29810;55.848;37.368;2022-11-15T06:31:29;99473.88;;;0.03;58.07
44148;BME280;29810;55.848;37.368;2022-11-15T06:34:49;99478.97;;;-0.04;58.02
44148;BME280;29810;55.848;37.368;2022-11-15T06:38:10;99484.06;;;-0.07;58.33
44148;BME280;29810;55.848;37.368;2022-11-15T06:41:33;99480.72;;;0.01;58.82
44148;BME280;29810;55.848;37.368;2022-11-15T06:44:53;99476.41;;;-0.05;59.40
44148;BME280;29810;55.848;37.368;2022-11-15T06:48:13;99459.37;;;0.02;60.54
44148;BME280;29810;55.848;37.368;2022-11-15T06:51:36;99467.16;;;0.14;59.19
44148;BME280;29810;55.848;37.368;2022-11-15T06:54:56;99462.88;;;0.13;60.72
44148;BME280;29810;55.848;37.368;2022-11-15T06:58:15;99467.16;;;0.09;58.06
44148;BME280;29810;55.848;37.368;2022-11-15T07:01:35;99456.06;;;0.13;61.86
44148;BME280;29810;55.848;37.368;2022-11-15T07:04:55;99453.59;;;0.24;62.14
44148;BME280;29810;55.848;37.368;2022-11-15T07:08:15;99451.03;;;0.27;61.29
44148;BME280;29810;55.848;37.368;2022-11-15T07:11:35;99451.87;;;0.25;57.69
44148;BME280;29810;55.848;37.368;2022-11-15T07:14:56;99455.38;;;0.31;62.13
44148;BME280;29810;55.848;37.368;2022-11-15T07:18:15;99443.47;;;0.40;61.94
44148;BME280;29810;55.848;37.368;2022-11-15T07:21:37;99443.47;;;0.43;61.25
44148;BME280;29810;55.848;37.368;2022-11-15T07:24:57;99434.09;;;0.46;62.37
44148;BME280;29810;55.848;37.368;2022-11-15T07:28:16;99432.47;;;0.56;64.00
44148;BME280;29810;55.848;37.368;2022-11-15T07:31:36;99436.84;;;0.76;64.56
44148;BME280;29810;55.848;37.368;2022-11-15T07:34:56;99414.63;;;0.78;63.48
44148;BME280;29810;55.848;37.368;2022-11-15T07:38:17;99414.72;;;0.92;62.98
44148;BME280;29810;55.848;37.368;2022-11-15T07:41:40;99404.38;;;0.81;63.59
44148;BME280;29810;55.848;37.368;2022-11-15T07:45:00;99408.63;;;0.73;62.25
44148;BME280;29810;55.848;37.368;2022-11-15T07:48:20;99409.47;;;0.72;65.17
44148;BME280;29810;55.848;37.368;2022-11-15T07:51:40;99399.19;;;0.69;61.17
44148;BME280;29810;55.848;37.368;2022-11-15T07:55:00;99410.34;;;0.72;64.16
44148;BME280;29810;55.848;37.368;2022-11-15T07:58:20;99412.06;;;0.73;63.55
44148;BME280;29810;55.848;37.368;2022-11-15T08:01:39;99404.38;;;0.76;64.42
44148;BME280;29810;55.848;37.368;2022-11-15T08:04:59;99387.25;;;0.74;61.02
44148;BME280;29810;55.848;37.368;2022-11-15T08:08:19;99401.78;;;0.73;63.66
44148;BME280;29810;55.848;37.368;2022-11-15T08:11:39;99406.81;;;0.56;60.03
44148;BME280;29810;55.848;37.368;2022-11-15T08:14:59;99391.47;;;0.69;64.97
44148;BME280;29810;55.848;37.368;2022-11-15T08:18:18;99384.75;;;0.91;64.89
44148;BME280;29810;55.848;37.368;2022-11-15T08:21:38;99382.34;;;1.23;63.26
44148;BME280;29810;55.848;37.368;2022-11-15T08:24:58;99390.03;;;1.23;63.95
44148;BME280;29810;55.848;37.368;2022-11-15T08:28:17;99393.47;;;1.19;63.54
44148;BME280;29810;55.848;37.368;2022-11-15T08:31:37;99379.81;;;1.29;64.59
44148;BME280;29810;55.848;37.368;2022-11-15T08:34:57;99379.84;;;1.49;64.06
44148;BME280;29810;55.848;37.368;2022-11-15T08:38:17;99381.53;;;1.43;57.09
44148;BME280;29810;55.848;37.368;2022-11-15T08:41:37;99381.59;;;1.58;63.80
44148;BME280;29810;55.848;37.368;2022-11-15T08:44:57;99379.88;;;1.79;63.38
44148;BME280;29810;55.848;37.368;2022-11-15T08:48:17;99367.06;;;1.94;64.09
44148;BME280;29810;55.848;37.368;2022-11-15T08:51:37;99365.34;;;2.15;64.25
44148;BME280;29810;55.848;37.368;2022-11-15T08:54:57;99367.06;;;2.04;62.64
44148;BME280;29810;55.848;37.368;2022-11-15T08:58:17;99349.91;;;1.93;63.74
44148;BME280;29810;55.848;37.368;2022-11-15T09:01:37;99360.19;;;1.92;63.26
44148;BME280;29810;55.848;37.368;2022-11-15T09:04:57;99356.78;;;1.97;64.35
44148;BME280;29810;55.848;37.368;2022-11-15T09:08:16;99355.03;;;1.93;62.51
44148;BME280;29810;55.848;37.368;2022-11-15T09:11:37;99355.91;;;1.95;63.47
44148;BME280;29810;55.848;37.368;2022-11-15T09:14:57;99346.47;;;1.85;63.36
44148;BME280;29810;55.848;37.368;2022-11-15T09:18:17;99340.50;;;1.85;64.71
44148;BME280;29810;55.848;37.368;2022-11-15T09:21:37;99333.62;;;1.90;63.69
44148;BME280;29810;55.848;37.368;2022-11-15T09:24:57;99336.19;;;1.94;63.90
44148;BME280;29810;55.848;37.368;2022-11-15T09:28:17;99303.62;;;1.87;63.91
44148;BME280;29810;55.848;37.368;2022-11-15T09:31:37;99325.91;;;2.01;61.54
44148;BME280;29810;55.848;37.368;2022-11-15T09:34:57;99319.06;;;2.03;63.67
44148;BME280;29810;55.848;37.368;2022-11-15T09:38:18;99325.03;;;2.08;63.24
44148;BME280;29810;55.848;37.368;2022-11-15T09:45:48;99327.63;;;2.03;57.43
44148;BME280;29810;55.848;37.368;2022-11-15T09:49:01;99323.34;;;2.07;58.45
44148;BME280;29810;55.848;37.368;2022-11-15T09:52:04;99315.63;;;1.80;60.91
44148;BME280;29810;55.848;37.368;2022-11-15T09:55:09;99329.34;;;1.87;64.22
44148;BME280;29810;55.848;37.368;2022-11-15T10:04:39;99312.97;;;1.14;59.68
44148;BME280;29810;55.848;37.368;2022-11-15T10:11:08;99304.47;;;1.58;60.43
44148;BME280;29810;55.848;37.368;2022-11-15T10:14:16;99302.75;;;1.40;59.72
44148;BME280;29810;55.848;37.368;2022-11-15T10:18:14;99301.81;;;1.12;56.78
44148;BME280;29810;55.848;37.368;2022-11-15T10:21:29;99294.13;;;1.23;57.49
44148;BME280;29810;55.848;37.368;2022-11-15T10:24:38;99287.28;;;1.20;60.86
44148;BME280;29810;55.848;37.368;2022-11-15T10:27:42;99282.13;;;1.20;61.84
44148;BME280;29810;55.848;37.368;2022-11-15T10:30:51;99282.09;;;0.97;61.62
44148;BME280;29810;55.848;37.368;2022-11-15T10:34:17;99282.94;;;0.99;62.35
44148;BME280;29810;55.848;37.368;2022-11-15T10:37:31;99271.84;;;1.06;60.45
44148;BME280;29810;55.848;37.368;2022-11-15T10:40:33;99259.00;;;1.11;60.42
44148;BME280;29810;55.848;37.368;2022-11-15T10:43:35;99253.87;;;1.05;64.57
44148;BME280;29810;55.848;37.368;2022-11-15T10:46:38;99255.59;;;1.10;65.26
44148;BME280;29810;55.848;37.368;2022-11-15T10:49:53;99250.44;;;1.06;63.73
44148;BME280;29810;55.848;37.368;2022-11-15T10:52:55;99241.91;;;1.13;62.38
44148;BME280;29810;55.848;37.368;2022-11-15T10:56:00;99241.84;;;1.01;65.05
44148;BME280;29810;55.848;37.368;2022-11-15T10:59:03;99245.22;;;0.81;63.15
44148;BME280;29810;55.848;37.368;2022-11-15T11:05:27;99241.78;;;0.70;61.17
44148;BME280;29810;55.848;37.368;2022-11-15T11:08:29;99229.81;;;0.69;66.55
44148;BME280;29810;55.848;37.368;2022-11-15T11:11:52;99228.12;;;0.71;64.95
44148;BME280;29810;55.848;37.368;2022-11-15T11:14:54;99231.53;;;0.74;62.23
44148;BME280;29810;55.848;37.368;2022-11-15T11:18:07;99226.34;;;0.66;65.62
44148;BME280;29810;55.848;37.368;2022-11-15T11:31:39;99195.66;;;0.93;62.94
44148;BME280;29810;55.848;37.368;2022-11-15T11:34:56;99205.09;;;1.05;63.17
44148;BME280;29810;55.848;37.368;2022-11-15T11:44:53;99204.97;;;0.55;68.17
44148;BME280;29810;55.848;37.368;2022-11-15T11:51:38;99210.03;;;0.37;64.32
44148;BME280;29810;55.848;37.368;2022-11-15T11:58:06;99195.50;;;0.45;66.92
44148;BME280;29810;55.848;37.368;2022-11-15T12:01:37;99195.47;;;0.37;69.15
44148;BME280;29810;55.848;37.368;2022-11-15T12:04:47;99192.91;;;0.40;66.74
44148;BME280;29810;55.848;37.368;2022-11-15T12:07:53;99186.88;;;0.24;70.52
44148;BME280;29810;55.848;37.368;2022-11-15T12:11:17;99181.75;;;0.24;71.09
44148;BME280;29810;55.848;37.368;2022-11-15T12:17:32;99183.47;;;0.28;73.26
44148;BME280;29810;55.848;37.368;2022-11-15T12:20:39;99173.16;;;0.16;74.17
44148;BME280;29810;55.848;37.368;2022-11-15T12:23:47;99173.97;;;0.04;73.74
44148;BME280;29810;55.848;37.368;2022-11-15T12:26:57;99166.19;;;-0.07;74.67
44148;BME280;29810;55.848;37.368;2022-11-15T12:30:15;99162.78;;;-0.04;74.75
44148;BME280;29810;55.848;37.368;2022-11-15T12:36:43;99162.00;;;0.03;75.63
44148;BME280;29810;55.848;37.368;2022-11-15T12:52:35;99135.41;;;-0.18;79.40
44148;BME280;29810;55.848;37.368;2022-11-15T12:55:37;99130.25;;;-0.22;79.94
44148;BME280;29810;55.848;37.368;2022-11-15T12:58:49;99122.56;;;-0.22;81.08
44148;BME280;29810;55.848;37.368;2022-11-15T13:01:58;99119.09;;;-0.29;81.14
44148;BME280;29810;55.848;37.368;2022-11-15T13:08:44;99113.09;;;-0.36;80.68
44148;BME280;29810;55.848;37.368;2022-11-15T13:11:50;99109.69;;;-0.35;81.20
44148;BME280;29810;55.848;37.368;2022-11-15T13:14:57;99106.22;;;-0.43;82.87
44148;BME280;29810;55.848;37.368;2022-11-15T13:18:25;99100.22;;;-0.48;82.50
44148;BME280;29810;55.848;37.368;2022-11-15T13:21:28;99097.66;;;-0.43;83.83
44148;BME280;29810;55.848;37.368;2022-11-15T13:24:48;99089.88;;;-0.63;83.89
44148;BME280;29810;55.848;37.368;2022-11-15T13:27:51;99091.59;;;-0.62;84.85
44148;BME280;29810;55.848;37.368;2022-11-15T13:30:55;99089.88;;;-0.67;84.51
44148;BME280;29810;55.848;37.368;2022-11-15T13:34:01;99085.66;;;-0.55;87.01
44148;BME280;29810;55.848;37.368;2022-11-15T13:37:03;99072.00;;;-0.54;86.28
44148;BME280;29810;55.848;37.368;2022-11-15T13:40:25;99075.50;;;-0.40;85.13
44148;BME280;29810;55.848;37.368;2022-11-15T13:43:33;99072.00;;;-0.51;83.14
44148;BME280;29810;55.848;37.368;2022-11-15T13:46:36;99070.25;;;-0.61;84.98
44148;BME280;29810;55.848;37.368;2022-11-15T13:49:37;99074.50;;;-0.63;85.02
44148;BME280;29810;55.848;37.368;2022-11-15T13:52:40;99070.22;;;-0.68;85.81
44148;BME280;29810;55.848;37.368;2022-11-15T13:55:44;99071.91;;;-0.68;85.88
44148;BME280;29810;55.848;37.368;2022-11-15T13:58:46;99065.06;;;-0.71;85.61
44148;BME280;29810;55.848;37.368;2022-11-15T14:01:49;99075.34;;;-0.68;85.94
44148;BME280;29810;55.848;37.368;2022-11-15T14:04:55;99061.69;;;-0.67;86.51
44148;BME280;29810;55.848;37.368;2022-11-15T14:07:58;99056.59;;;-0.62;85.96
44148;BME280;29810;55.848;37.368;2022-11-15T14:11:17;99057.50;;;-0.49;86.16
44148;BME280;29810;55.848;37.368;2022-11-15T14:14:23;99055.00;;;-0.44;84.03
44148;BME280;29810;55.848;37.368;2022-11-15T14:20:35;99045.44;;;-0.69;84.58
44148;BME280;29810;55.848;37.368;2022-11-15T14:23:39;99046.25;;;-0.79;84.48
44148;BME280;29810;55.848;37.368;2022-11-15T14:26:41;99041.06;;;-0.91;84.95
44148;BME280;29810;55.848;37.368;2022-11-15T14:29:43;99039.34;;;-0.89;85.24
44148;BME280;29810;55.848;37.368;2022-11-15T14:32:47;99043.63;;;-0.88;85.39
44148;BME280;29810;55.848;37.368;2022-11-15T14:35:51;99041.97;;;-0.81;84.91
44148;BME280;29810;55.848;37.368;2022-11-15T14:38:53;99032.53;;;-0.87;84.78
44148;BME280;29810;55.848;37.368;2022-11-15T14:41:55;99035.94;;;-0.85;85.51
44148;BME280;29810;55.848;37.368;2022-11-15T14:44:57;99029.22;;;-0.74;85.20
44148;BME280;29810;55.848;37.368;2022-11-15T14:47:58;99028.31;;;-0.82;84.63
44148;BME280;29810;55.848;37.368;2022-11-15T14:51:00;98993.25;;;-0.95;85.32
44148;BME280;29810;55.848;37.368;2022-11-15T14:54:02;99010.28;;;-0.97;84.83
44148;BME280;29810;55.848;37.368;2022-11-15T14:57:03;99017.97;;;-0.99;84.95
44148;BME280;29810;55.848;37.368;2022-11-15T15:00:06;99017.06;;;-1.06;84.45
44148;BME280;29810;55.848;37.368;2022-11-15T15:03:13;99007.63;;;-1.10;84.71
44148;BME280;29810;55.848;37.368;2022-11-15T15:06:15;99008.47;;;-1.14;84.51
44148;BME280;29810;55.848;37.368;2022-11-15T15:09:16;99006.75;;;-1.18;84.92
44148;BME280;29810;55.848;37.368;2022-11-15T15:12:20;99006.75;;;-1.18;84.45
44148;BME280;29810;55.848;37.368;2022-11-15T15:15:24;99001.59;;;-1.21;84.26
44148;BME280;29810;55.848;37.368;2022-11-15T15:18:26;98997.31;;;-1.24;84.12
44148;BME280;29810;55.848;37.368;2022-11-15T15:21:28;98993.06;;;-1.23;84.33
44148;BME280;29810;55.848;37.368;2022-11-15T15:24:32;98985.41;;;-1.20;84.40
44148;BME280;29810;55.848;37.368;2022-11-15T15:27:34;98981.16;;;-1.18;84.58
44148;BME280;29810;55.848;37.368;2022-11-15T15:30:36;98984.53;;;-1.22;84.76
44148;BME280;29810;55.848;37.368;2022-11-15T15:33:37;98961.44;;;-1.31;84.94
44148;BME280;29810;55.848;37.368;2022-11-15T15:36:39;98972.53;;;-1.29;85.44
44148;BME280;29810;55.848;37.368;2022-11-15T15:39:40;98972.63;;;-1.20;86.09
44148;BME280;29810;55.848;37.368;2022-11-15T15:42:43;98960.69;;;-1.18;85.91
44148;BME280;29810;55.848;37.368;2022-11-15T15:45:44;98966.69;;;-1.18;85.80
44148;BME280;29810;55.848;37.368;2022-11-15T15:48:46;98959.78;;;-1.23;85.88
44148;BME280;29810;55.848;37.368;2022-11-15T15:51:48;98955.56;;;-1.21;86.16
44148;BME280;29810;55.848;37.368;2022-11-15T15:54:49;98942.72;;;-1.26;86.15
44148;BME280;29810;55.848;37.368;2022-11-15T15:57:51;98950.38;;;-1.30;86.60
44148;BME280;29810;55.848;37.368;2022-11-15T16:00:52;98947.84;;;-1.29;87.31
44148;BME280;29810;55.848;37.368;2022-11-15T16:03:54;98947.88;;;-1.23;86.95
44148;BME280;29810;55.848;37.368;2022-11-15T16:07:00;98941.84;;;-1.29;86.65
44148;BME280;29810;55.848;37.368;2022-11-15T16:10:24;98940.16;;;-1.32;86.79
44148;BME280;29810;55.848;37.368;2022-11-15T16:13:26;98938.44;;;-1.31;86.98
44148;BME280;29810;55.848;37.368;2022-11-15T16:16:28;98940.09;;;-1.40;87.12
44148;BME280;29810;55.848;37.368;2022-11-15T16:19:29;98929.78;;;-1.49;87.48
44148;BME280;29810;55.848;37.368;2022-11-15T16:22:31;98934.94;;;-1.43;87.60
44148;BME280;29810;55.848;37.368;2022-11-15T16:25:55;98929.88;;;-1.38;87.95
44148;BME280;29810;55.848;37.368;2022-11-15T16:28:57;98925.63;;;-1.35;87.60
44148;BME280;29810;55.848;37.368;2022-11-15T16:31:59;98923.88;;;-1.39;87.52
44148;BME280;29810;55.848;37.368;2022-11-15T16:35:00;98930.66;;;-1.47;87.92
44148;BME280;29810;55.848;37.368;2022-11-15T16:38:02;98931.47;;;-1.51;88.13
44148;BME280;29810;55.848;37.368;2022-11-15T16:41:04;98924.66;;;-1.52;88.42
44148;BME280;29810;55.848;37.368;2022-11-15T16:44:05;98915.22;;;-1.59;88.61
44148;BME280;29810;55.848;37.368;2022-11-15T16:47:20;98918.63;;;-1.60;88.63
44148;BME280;29810;55.848;37.368;2022-11-15T16:50:26;98901.50;;;-1.71;88.64
44148;BME280;29810;55.848;37.368;2022-11-15T16:53:28;98907.50;;;-1.67;88.85
44148;BME280;29810;55.848;37.368;2022-11-15T16:56:30;98910.03;;;-1.69;88.51
44148;BME280;29810;55.848;37.368;2022-11-15T16:59:31;98901.50;;;-1.72;89.00
44148;BME280;29810;55.848;37.368;2022-11-15T17:02:33;98900.62;;;-1.73;89.38
44148;BME280;29810;55.848;37.368;2022-11-15T17:05:35;98904.06;;;-1.74;89.52
44148;BME280;29810;55.848;37.368;2022-11-15T17:08:36;98902.28;;;-1.78;90.22
44148;BME280;29810;55.848;37.368;2022-11-15T17:11:39;98902.28;;;-1.78;90.58
44148;BME280;29810;55.848;37.368;2022-11-15T17:14:41;98899.72;;;-1.83;90.62
44148;BME280;29810;55.848;37.368;2022-11-15T17:17:43;98881.63;;;-2.03;91.37
44148;BME280;29810;55.848;37.368;2022-11-15T17:20:46;98898.81;;;-1.86;91.53
44148;BME280;29810;55.848;37.368;2022-11-15T17:23:47;98898.00;;;-1.84;91.30
44148;BME280;29810;55.848;37.368;2022-11-15T17:26:49;98899.72;;;-1.81;91.47
44148;BME280;29810;55.848;37.368;2022-11-15T17:29:50;98900.59;;;-1.76;91.36
44148;BME280;29810;55.848;37.368;2022-11-15T17:32:52;98895.50;;;-1.74;91.21
44148;BME280;29810;55.848;37.368;2022-11-15T17:35:58;98894.69;;;-1.70;90.94
44148;BME280;29810;55.848;37.368;2022-11-15T17:38:59;98904.94;;;-1.67;90.87
44148;BME280;29810;55.848;37.368;2022-11-15T17:42:01;98894.72;;;-1.65;90.87
44148;BME280;29810;55.848;37.368;2022-11-15T17:45:03;98888.72;;;-1.68;91.11
44148;BME280;29810;55.848;37.368;2022-11-15T17:48:05;98893.03;;;-1.63;91.32
44148;BME280;29810;55.848;37.368;2022-11-15T17:51:09;98889.66;;;-1.58;91.45
44148;BME280;29810;55.848;37.368;2022-11-15T17:54:12;98892.28;;;-1.50;91.40
44148;BME280;29810;55.848;37.368;2022-11-15T17:57:14;98887.19;;;-1.47;91.18
44148;BME280;29810;55.848;37.368;2022-11-15T18:00:16;98880.34;;;-1.48;91.19
44148;BME280;29810;55.848;37.368;2022-11-15T18:03:21;98880.28;;;-1.57;91.10
44148;BME280;29810;55.848;37.368;2022-11-15T18:06:23;98884.50;;;-1.62;91.44
44148;BME280;29810;55.848;37.368;2022-11-15T18:09:25;98876.84;;;-1.65;91.90
44148;BME280;29810;55.848;37.368;2022-11-15T18:12:26;98876.78;;;-1.69;92.17
44148;BME280;29810;55.848;37.368;2022-11-15T18:15:28;98873.44;;;-1.64;92.42
44148;BME280;29810;55.848;37.368;2022-11-15T18:18:33;98861.50;;;-1.65;92.25
44148;BME280;29810;55.848;37.368;2022-11-15T18:21:35;98866.59;;;-1.65;92.29
44148;BME280;29810;55.848;37.368;2022-11-15T18:24:56;98869.16;;;-1.64;92.38
44148;BME280;29810;55.848;37.368;2022-11-15T18:27:57;98854.72;;;-1.59;92.12
44148;BME280;29810;55.848;37.368;2022-11-15T18:31:00;98864.91;;;-1.63;92.16
44148;BME280;29810;55.848;37.368;2022-11-15T18:34:02;98865.69;;;-1.74;92.51